Time;durP1;ratioP1;P1;durP2;ratioP2;P2;SDS_P1;SDS_P2;PMS_P1;PMS_P2;Temp;Humidity;BMP_temperature;BMP_pressure;BME280_temperature;BME280_humidity;BME280_pressure;Samples;Min_cycle;Max_cycle;Signal;HPM_P1;HPM_P2
2022/08/23 00:00:45;;;;;;;11.95;7.97;;;;;;;21.26;55.74;101278.16;6243419;23;20412;-58
2022/08/23 00:03:11;;;;;;;10.77;7.13;;;;;;;21.19;55.75;101266.44;6243686;23;20424;-58
2022/08/23 00:05:36;;;;;;;13.02;7.25;;;;;;;21.30;55.19;101272.72;6243025;23;20012;-58
2022/08/23 00:08:02;;;;;;;12.75;6.18;;;;;;;21.32;55.37;101261.91;6243708;23;20004;-58
2022/08/23 00:10:28;;;;;;;11.75;7.38;;;;;;;21.25;55.45;101265.16;6243202;23;20054;-58
2022/08/23 00:12:53;;;;;;;11.73;7.85;;;;;;;21.14;55.83;101266.53;6242857;23;20012;-58
2022/08/23 00:15:19;;;;;;;13.20;6.78;;;;;;;21.20;55.88;101259.63;6243051;23;20420;-58
2022/08/23 00:17:45;;;;;;;11.35;8.30;;;;;;;21.05;55.93;101257.13;6243748;23;20090;-58
2022/08/23 00:20:14;;;;;;;12.43;7.90;;;;;;;21.02;56.30;101261.41;6243110;23;20004;-58
2022/08/23 00:22:40;;;;;;;11.82;7.97;;;;;;;21.07;55.79;101264.16;6243937;23;20008;-58
2022/08/23 00:25:08;;;;;;;14.45;7.45;;;;;;;21.09;55.57;101266.63;6242176;23;20367;-58
2022/08/23 00:27:34;;;;;;;14.23;6.88;;;;;;;21.14;55.47;101269.34;6242567;23;20019;-58
2022/08/23 00:30:00;;;;;;;10.48;8.15;;;;;;;21.07;55.81;101260.50;6244054;23;20012;-57
2022/08/23 00:32:30;;;;;;;10.07;6.93;;;;;;;21.08;55.84;101259.31;6242469;23;20420;-58
2022/08/23 00:34:57;;;;;;;10.10;6.55;;;;;;;21.08;55.67;101260.16;6244300;23;20008;-57
2022/08/23 00:37:23;;;;;;;12.98;7.05;;;;;;;21.06;55.72;101258.78;6244167;23;20376;-58
2022/08/23 00:39:49;;;;;;;10.63;7.40;;;;;;;21.06;55.99;101268.13;6243215;23;20007;-58
2022/08/23 00:48:22;;;;;;;12.80;8.82;;;;;;;20.88;56.18;101260.59;6242956;23;20101;-57
2022/08/23 00:51:01;;;;;;;14.45;7.78;;;;;;;20.97;55.92;101263.50;6243477;23;20004;-57
2022/08/23 00:53:31;;;;;;;15.48;8.50;;;;;;;20.82;56.18;101265.47;6243026;23;20024;-58
2022/08/23 00:55:58;;;;;;;11.38;8.20;;;;;;;20.80;56.45;101269.78;6243419;23;20000;-57
2022/08/23 00:58:24;;;;;;;13.55;8.85;;;;;;;20.65;56.77;101256.78;6244100;23;20023;-58
2022/08/23 01:00:53;;;;;;;12.55;8.15;;;;;;;20.71;56.95;101269.66;6243718;23;20332;-57
2022/08/23 01:03:22;;;;;;;11.60;7.80;;;;;;;20.71;56.88;101271.63;6244909;23;20012;-58
2022/08/23 01:05:52;;;;;;;11.90;7.55;;;;;;;20.70;56.92;101275.59;6245684;23;20346;-58
2022/08/23 01:08:22;;;;;;;14.02;8.32;;;;;;;20.61;56.95;101272.66;6244549;23;19996;-58
2022/08/23 01:10:56;;;;;;;9.73;7.25;;;;;;;20.72;56.85;101276.97;6245447;23;20011;-57
2022/08/23 01:13:38;;;;;;;11.02;6.85;;;;;;;20.72;56.32;101265.69;6244758;23;20085;-57
2022/08/23 01:16:14;;;;;;;8.25;7.35;;;;;;;20.73;56.41;101270.19;6243178;23;20000;-57
2022/08/23 01:18:41;;;;;;;13.45;7.75;;;;;;;20.61;56.76;101269.84;6246259;23;20030;-58
2022/08/23 01:21:17;;;;;;;11.43;7.80;;;;;;;20.58;56.87;101265.66;6244941;23;20008;-57
2022/08/23 01:23:46;;;;;;;9.38;7.65;;;;;;;20.58;56.94;101262.84;6244343;23;20411;-57
2022/08/23 01:26:14;;;;;;;13.85;8.02;;;;;;;20.48;57.00;101267.81;6244420;23;20522;-58
2022/08/23 01:28:40;;;;;;;12.88;7.47;;;;;;;20.57;57.06;101266.81;6244782;23;20012;-57
2022/08/23 01:31:07;;;;;;;10.02;7.25;;;;;;;20.61;56.64;101275.50;6245270;23;20012;-57
2022/08/23 01:33:34;;;;;;;12.23;7.60;;;;;;;20.51;56.84;101267.22;6245361;23;20001;-57
2022/08/23 01:36:00;;;;;;;12.68;7.53;;;;;;;20.47;57.01;101272.59;6244217;23;20363;-57
2022/08/23 01:38:26;;;;;;;10.82;6.65;;;;;;;20.54;57.05;101273.06;6245376;23;20008;-57
2022/08/23 01:40:52;;;;;;;10.60;6.95;;;;;;;20.62;56.97;101279.16;6244277;23;20007;-57
2022/08/23 01:43:20;;;;;;;11.18;7.43;;;;;;;20.57;56.78;101283.72;6244596;23;20058;-58
2022/08/23 01:45:47;;;;;;;9.15;7.50;;;;;;;20.56;56.99;101281.25;6244683;23;20380;-58
2022/08/23 01:48:14;;;;;;;10.55;7.68;;;;;;;20.45;57.23;101277.72;6245225;23;20034;-57
2022/08/23 01:50:40;;;;;;;8.05;5.82;;;;;;;20.62;57.03;101284.78;6244764;23;20066;-58
2022/08/23 01:53:06;;;;;;;12.93;7.80;;;;;;;20.44;57.48;101275.22;6245357;23;20086;-57
2022/08/23 01:55:31;;;;;;;13.07;7.63;;;;;;;20.53;57.49;101281.84;6243505;23;20439;-58
2022/08/23 01:58:00;;;;;;;10.38;6.32;;;;;;;20.56;57.26;101284.06;6244454;23;20009;-57
2022/08/23 02:00:30;;;;;;;11.65;7.20;;;;;;;20.49;57.33;101283.63;6244658;23;20008;-57
2022/08/23 02:02:56;;;;;;;9.43;6.55;;;;;;;20.55;57.42;101277.59;6243652;23;20095;-58
2022/08/23 02:05:22;;;;;;;9.35;5.97;;;;;;;20.50;57.75;101282.47;6244494;23;20031;-57
2022/08/23 02:07:47;;;;;;;8.60;6.13;;;;;;;20.49;57.88;101278.81;6245101;23;20015;-57
2022/08/23 02:10:14;;;;;;;11.63;6.72;;;;;;;20.45;58.07;101282.53;6243419;23;20047;-57
2022/08/23 02:12:39;;;;;;;8.27;5.80;;;;;;;20.52;57.49;101278.19;6243450;23;20324;-58
2022/08/23 02:15:05;;;;;;;9.82;5.57;;;;;;;20.55;57.57;101283.22;6244701;23;20011;-57
2022/08/23 02:17:30;;;;;;;9.88;5.93;;;;;;;20.48;57.80;101279.94;6244372;23;20000;-57
2022/08/23 02:19:56;;;;;;;10.23;5.43;;;;;;;20.53;57.95;101276.22;6243450;23;20012;-57
2022/08/23 02:22:21;;;;;;;12.30;6.25;;;;;;;20.51;57.93;101281.31;6244679;23;20095;-57
2022/08/23 02:24:47;;;;;;;11.80;6.65;;;;;;;20.47;57.82;101281.06;6243931;23;20003;-57
2022/08/23 02:27:15;;;;;;;10.00;6.32;;;;;;;20.50;57.86;101277.66;6244714;23;20332;-58
2022/08/23 02:29:43;;;;;;;8.77;6.30;;;;;;;20.51;57.85;101275.66;6244689;23;20000;-58
2022/08/23 02:32:11;;;;;;;9.07;6.28;;;;;;;20.51;57.85;101272.84;6244213;23;20371;-59
2022/08/23 02:34:38;;;;;;;8.40;6.45;;;;;;;20.42;58.16;101267.06;6245015;23;20001;-58
2022/08/23 02:37:05;;;;;;;12.85;6.90;;;;;;;20.37;58.57;101272.78;6244998;23;20016;-58
2022/08/23 02:39:30;;;;;;;10.15;6.55;;;;;;;20.35;58.62;101275.06;6243720;23;20048;-58
2022/08/23 02:41:56;;;;;;;7.82;5.78;;;;;;;20.46;58.57;101270.09;6244276;23;20004;-58
2022/08/23 02:44:21;;;;;;;10.13;6.95;;;;;;;20.32;58.85;101270.91;6245001;23;20416;-58
2022/08/23 02:46:47;;;;;;;10.65;6.32;;;;;;;20.41;58.74;101273.84;6244089;23;20015;-58
2022/08/23 02:49:13;;;;;;;9.75;6.78;;;;;;;20.40;58.46;101277.81;6244556;23;20004;-58
2022/08/23 02:51:39;;;;;;;9.65;6.35;;;;;;;20.40;58.87;101271.34;6243974;23;20314;-58
2022/08/23 02:54:05;;;;;;;10.30;6.45;;;;;;;20.41;58.75;101275.84;6243797;23;20049;-57
2022/08/23 02:56:31;;;;;;;10.90;6.18;;;;;;;20.42;58.59;101285.97;6244908;23;20008;-58
2022/08/23 02:58:57;;;;;;;9.50;5.82;;;;;;;20.44;58.30;101286.50;6244587;23;20000;-58
2022/08/23 03:01:26;;;;;;;8.48;6.07;;;;;;;20.38;58.37;101282.91;6243488;23;20014;-58
2022/08/23 03:03:52;;;;;;;8.27;6.22;;;;;;;20.40;58.25;101285.44;6244148;23;20399;-58
2022/08/23 03:06:17;;;;;;;7.40;5.30;;;;;;;20.47;58.21;101283.88;6243578;23;20005;-58
2022/08/23 03:08:43;;;;;;;9.75;6.70;;;;;;;20.34;58.25;101279.03;6243310;23;20004;-58
2022/08/23 03:11:15;;;;;;;11.60;6.07;;;;;;;20.43;58.38;101284.81;6244379;23;20340;-58
2022/08/23 03:13:42;;;;;;;9.05;5.38;;;;;;;20.45;58.35;101296.63;6243734;23;20000;-58
2022/08/23 03:16:08;;;;;;;10.40;6.30;;;;;;;20.43;58.20;101290.44;6244488;23;20031;-58
2022/08/23 03:18:35;;;;;;;9.70;5.60;;;;;;;20.45;58.45;101288.16;6244624;23;20044;-58
2022/08/23 03:21:02;;;;;;;12.13;7.63;;;;;;;20.34;58.67;101285.53;6242318;23;20714;-58
2022/08/23 03:23:28;;;;;;;8.70;6.20;;;;;;;20.43;58.66;101290.44;6243952;23;20331;-58
2022/08/23 03:25:56;;;;;;;13.98;6.03;;;;;;;20.39;58.79;101293.03;6244485;23;20008;-58
2022/08/23 03:28:21;;;;;;;11.70;6.72;;;;;;;20.42;58.47;101297.25;6243416;23;20133;-58
2022/08/23 03:30:46;;;;;;;10.57;7.38;;;;;;;20.29;58.57;101305.34;6243876;23;20027;-58
2022/08/23 03:33:12;;;;;;;11.27;7.80;;;;;;;20.29;58.86;101302.53;6244294;23;20004;-58
2022/08/23 03:35:37;;;;;;;13.32;6.78;;;;;;;20.31;58.88;101297.41;6242127;23;20054;-58
2022/08/23 03:38:02;;;;;;;9.25;6.20;;;;;;;20.33;59.01;101306.41;6243282;23;20424;-58
2022/08/23 03:40:28;;;;;;;10.60;7.70;;;;;;;20.23;59.40;101300.09;6242437;23;20034;-58
2022/08/23 03:42:53;;;;;;;7.32;6.60;;;;;;;20.26;59.19;101300.31;6241748;23;20019;-59
2022/08/23 03:45:18;;;;;;;11.73;7.95;;;;;;;20.18;59.15;101301.03;6243675;23;20004;-58
2022/08/23 03:47:44;;;;;;;12.52;6.75;;;;;;;20.26;58.93;101297.50;6243939;23;20012;-58
2022/08/23 03:50:09;;;;;;;12.23;6.47;;;;;;;20.27;59.12;101301.16;6242670;23;20004;-58
2022/08/23 03:52:35;;;;;;;12.90;7.72;;;;;;;20.21;59.07;101296.75;6241782;23;20014;-58
2022/08/23 03:55:00;;;;;;;11.52;8.57;;;;;;;20.17;59.10;101305.00;6242591;23;20286;-58
2022/08/23 03:57:25;;;;;;;11.63;7.05;;;;;;;20.24;59.08;101297.00;6242461;23;20008;-58
2022/08/23 03:59:51;;;;;;;7.32;5.82;;;;;;;20.31;58.72;101314.31;6243043;23;20004;-58
2022/08/23 04:02:16;;;;;;;11.10;7.55;;;;;;;20.18;58.78;101308.66;6241875;23;20012;-58
2022/08/23 04:04:42;;;;;;;10.27;6.95;;;;;;;20.23;58.91;101311.38;6241624;23;20012;-58
2022/08/23 04:07:08;;;;;;;10.80;7.18;;;;;;;20.24;58.66;101307.41;6242126;23;20716;-58
2022/08/23 04:09:33;;;;;;;8.82;6.70;;;;;;;20.22;58.91;101307.72;6242412;23;20015;-59
2022/08/23 04:11:59;;;;;;;12.82;6.40;;;;;;;20.27;58.76;101312.44;6241610;23;20016;-58
2022/08/23 04:14:25;;;;;;;10.40;6.18;;;;;;;20.28;58.55;101312.13;6243286;23;20483;-58
2022/08/23 04:16:51;;;;;;;8.13;6.57;;;;;;;20.26;58.63;101311.59;6243116;23;20008;-57
2022/08/23 04:19:16;;;;;;;13.68;8.13;;;;;;;20.12;58.74;101310.69;6241580;23;20436;-58
2022/08/23 04:21:51;;;;;;;11.45;8.07;;;;;;;20.08;58.93;101318.09;6243318;23;20011;-58
2022/08/23 04:24:17;;;;;;;11.50;8.30;;;;;;;19.98;59.38;101315.44;6241839;23;20010;-58
2022/08/23 04:26:42;;;;;;;10.57;8.02;;;;;;;19.99;59.37;101319.94;6243589;23;20103;-58
2022/08/23 04:29:08;;;;;;;13.50;8.82;;;;;;;19.96;59.30;101317.72;6243381;23;20039;-58
2022/08/23 04:31:34;;;;;;;17.55;9.15;;;;;;;19.98;59.46;101324.72;6242964;23;20015;-58
2022/08/23 04:34:00;;;;;;;16.23;9.32;;;;;;;19.96;59.22;101327.00;6244566;23;20015;-58
2022/08/23 04:36:30;;;;;;;16.75;8.48;;;;;;;19.97;59.11;101334.34;6246125;23;20008;-57
2022/08/23 04:38:55;;;;;;;17.13;9.07;;;;;;;19.91;59.61;101334.69;6243635;23;20008;-58
2022/08/23 04:44:04;;;;;;;14.50;8.32;;;;;;;19.95;59.57;101332.94;6244882;23;20016;-57
2022/08/23 04:46:30;;;;;;;13.02;7.25;;;;;;;20.01;59.48;101337.38;6244378;23;20606;-58
2022/08/23 04:48:55;;;;;;;10.20;7.38;;;;;;;20.05;59.34;101328.00;6244663;23;20015;-57
2022/08/23 04:51:21;;;;;;;12.20;7.43;;;;;;;20.04;59.40;101336.75;6245350;23;20019;-58
2022/08/23 04:53:46;;;;;;;15.82;9.48;;;;;;;19.99;59.37;101339.66;6245250;23;20004;-57
2022/08/23 04:56:11;;;;;;;15.45;8.77;;;;;;;19.99;59.45;101340.47;6245428;23;20008;-58
2022/08/23 04:58:37;;;;;;;13.77;8.23;;;;;;;20.04;59.33;101350.84;6246001;23;20004;-57
2022/08/23 05:01:06;;;;;;;12.60;8.50;;;;;;;20.03;59.29;101347.19;6243561;23;20032;-57
2022/08/23 05:03:32;;;;;;;17.10;9.35;;;;;;;19.99;59.67;101348.09;6243673;23;20492;-57
2022/08/23 05:05:59;;;;;;;10.82;8.57;;;;;;;20.01;59.72;101343.84;6244239;23;20000;-57
2022/08/23 05:08:24;;;;;;;13.88;10.25;;;;;;;19.88;60.23;101353.03;6244521;23;20014;-57
2022/08/23 05:10:50;;;;;;;11.13;8.18;;;;;;;20.05;59.77;101341.25;6243997;23;20063;-57
2022/08/23 05:13:15;;;;;;;12.52;7.40;;;;;;;20.08;59.70;101337.81;6244073;23;20011;-57
2022/08/23 05:15:41;;;;;;;7.30;6.53;;;;;;;20.13;59.56;101360.28;6244446;23;20050;-57
2022/08/23 05:18:07;;;;;;;11.07;7.88;;;;;;;20.18;59.56;101351.75;6245741;23;20016;-58
2022/08/23 05:20:32;;;;;;;16.25;9.75;;;;;;;20.11;59.70;101346.50;6243749;23;20510;-58
2022/08/23 05:22:59;;;;;;;11.80;8.57;;;;;;;20.20;60.14;101352.31;6241690;23;20008;-58
2022/08/23 05:29:31;;;;;;;14.98;9.70;;;;;;;20.19;59.77;101349.78;6241342;23;20019;-64
2022/08/23 06:19:38;;;;;;;14.27;9.15;;;;;;;20.47;60.58;101390.19;6212966;23;20507;-61
2022/08/23 06:26:00;;;;;;;15.77;8.70;;;;;;;20.48;60.34;101391.91;6167454;23;20008;-62
2022/08/23 06:45:58;;;;;;;13.57;8.45;;;;;;;20.91;59.29;101400.22;6129995;23;20484;-61
2022/08/23 06:53:02;;;;;;;;;;;;;;;;;;;;;
2022/08/23 07:37:59;;;;;;;;;;;;;;;;;;;;;
2022/08/23 10:58:26;;;;;;;5.93;2.10;;;;;;;26.36;43.10;101433.88;6206666;22;20215;-59
2022/08/23 11:00:55;;;;;;;6.00;2.13;;;;;;;26.47;42.87;101442.88;6241584;23;20012;-60
2022/08/23 11:03:35;;;;;;;6.70;1.92;;;;;;;26.43;43.31;101443.50;6240946;23;20018;-59
2022/08/23 11:06:40;;;;;;;5.15;1.73;;;;;;;26.47;43.97;101438.00;6241466;23;20332;-59
2022/08/23 11:09:17;;;;;;;6.38;2.08;;;;;;;26.51;44.00;101438.97;6214724;23;20063;-59
2022/08/23 11:12:01;;;;;;;4.88;2.05;;;;;;;26.63;44.60;101423.97;6242423;23;20093;-59
2022/08/23 11:14:46;;;;;;;6.88;2.35;;;;;;;26.72;43.59;101430.41;6241109;23;20004;-59
2022/08/23 11:17:25;;;;;;;7.97;2.53;;;;;;;26.82;43.78;101429.97;6239968;23;20383;-59
2022/08/23 11:20:05;;;;;;;5.38;2.00;;;;;;;26.84;43.12;101441.88;6240226;23;20004;-59
2022/08/23 11:22:53;;;;;;;7.18;2.17;;;;;;;26.87;41.95;101440.31;6242353;23;20012;-59
2022/08/23 11:25:18;;;;;;;6.03;2.10;;;;;;;26.97;42.11;101434.19;6180873;23;20016;-59
2022/08/23 11:27:44;;;;;;;4.20;2.17;;;;;;;26.89;42.01;101435.13;6242465;23;20011;-59
2022/08/23 11:30:31;;;;;;;7.38;2.17;;;;;;;26.86;43.03;101430.94;6242692;23;20373;-59
2022/08/23 11:33:08;;;;;;;5.30;2.33;;;;;;;26.87;42.85;101438.31;6241098;23;20008;-59
2022/08/23 11:35:44;;;;;;;4.57;2.08;;;;;;;26.90;43.20;101433.94;6242878;23;20011;-60
2022/08/23 11:38:11;;;;;;;5.38;2.40;;;;;;;26.95;43.09;101439.41;6242628;23;20082;-60
2022/08/23 11:40:49;;;;;;;6.20;2.42;;;;;;;26.72;43.01;101432.41;6242145;23;20040;-59
2022/08/23 11:43:24;;;;;;;5.65;1.77;;;;;;;26.75;42.74;101434.56;6241612;23;20436;-59
2022/08/23 11:45:49;;;;;;;6.28;2.08;;;;;;;26.94;42.28;101437.75;6243281;23;20008;-59
2022/08/23 11:48:36;;;;;;;4.60;1.80;;;;;;;27.05;41.51;101436.13;6241685;23;20293;-59
2022/08/23 11:51:19;;;;;;;6.85;2.15;;;;;;;27.07;41.76;101433.75;6242046;23;20042;-59
2022/08/23 11:54:22;;;;;;;4.18;2.03;;;;;;;27.07;41.97;101433.75;6242694;23;20339;-59
2022/08/23 11:56:56;;;;;;;8.35;2.15;;;;;;;27.08;41.95;101435.44;6242616;23;20012;-59
2022/08/23 11:59:33;;;;;;;6.88;2.40;;;;;;;26.95;41.71;101439.41;6242929;23;20065;-59
2022/08/23 12:02:37;;;;;;;10.07;2.10;;;;;;;26.91;42.13;101435.59;6241059;23;20417;-59
2022/08/23 12:05:31;;;;;;;4.45;1.95;;;;;;;26.96;42.04;101440.22;6242312;23;20012;-59
2022/08/23 12:08:02;;;;;;;4.50;2.17;;;;;;;27.10;42.63;101443.63;6242477;23;20007;-59
2022/08/23 12:10:39;;;;;;;7.07;2.50;;;;;;;26.92;42.12;101440.97;6241720;23;20015;-59
2022/08/23 12:13:16;;;;;;;7.00;2.40;;;;;;;26.82;42.78;101443.41;6241580;23;20021;-61
2022/08/23 12:16:03;;;;;;;5.97;2.08;;;;;;;26.80;43.13;101445.75;6242091;23;20004;-59
2022/08/23 12:18:31;;;;;;;5.47;2.30;;;;;;;26.89;42.20;101441.66;6242994;23;20008;-60
2022/08/23 12:21:03;;;;;;;4.28;2.00;;;;;;;26.81;42.47;101436.88;6242337;23;20008;-59
2022/08/23 12:23:28;;;;;;;6.90;1.80;;;;;;;26.85;42.23;101432.13;6241518;23;20016;-59
2022/08/23 12:26:07;;;;;;;4.68;2.00;;;;;;;26.95;42.09;101435.72;6242318;23;20024;-59
2022/08/23 12:28:51;;;;;;;6.35;1.90;;;;;;;27.03;43.03;101441.31;6242951;23;20008;-59
2022/08/23 12:31:38;;;;;;;4.20;2.10;;;;;;;27.03;41.94;101434.81;6241142;23;20032;-59
2022/08/23 12:34:30;;;;;;;4.28;1.73;;;;;;;27.09;41.69;101430.56;6242009;23;20040;-60
2022/08/23 12:37:09;;;;;;;3.88;1.73;;;;;;;27.26;41.06;101418.97;6241269;23;20009;-59
2022/08/23 12:39:47;;;;;;;6.57;2.30;;;;;;;27.40;41.64;101430.06;6242793;23;20036;-60
2022/08/23 12:42:24;;;;;;;6.75;2.22;;;;;;;27.35;41.79;101427.44;6242112;23;20114;-59
2022/08/23 12:44:59;;;;;;;4.30;1.83;;;;;;;27.32;41.73;101428.16;6241171;23;20005;-59
2022/08/23 12:47:24;;;;;;;5.82;1.65;;;;;;;27.43;41.18;101435.03;6242675;23;20004;-59
2022/08/23 12:50:01;;;;;;;3.28;1.60;;;;;;;27.37;41.29;101427.91;6242883;23;20439;-59
2022/08/23 12:52:32;;;;;;;2.53;1.70;;;;;;;27.40;40.65;101430.91;6241657;23;20010;-60
2022/08/23 12:54:58;;;;;;;5.70;1.40;;;;;;;27.38;40.41;101435.28;6242471;23;20011;-59
2022/08/23 12:57:35;;;;;;;3.65;1.40;;;;;;;27.41;40.40;101428.88;6244756;23;20023;-60
2022/08/23 13:00:14;;;;;;;3.25;1.50;;;;;;;27.34;40.94;101437.16;6243539;23;20036;-60
2022/08/23 13:02:54;;;;;;;3.50;1.45;;;;;;;27.34;40.94;101438.00;6243922;23;20071;-59
2022/08/23 13:05:39;;;;;;;3.92;1.40;;;;;;;27.25;40.86;101433.59;6241788;23;20364;-59
2022/08/23 13:08:12;;;;;;;2.95;1.40;;;;;;;27.39;40.56;101422.69;6243563;23;20409;-59
2022/08/23 13:10:42;;;;;;;4.72;1.60;;;;;;;27.27;40.56;101422.66;6244786;23;20057;-60
2022/08/23 13:13:14;;;;;;;2.30;1.40;;;;;;;27.17;40.78;101427.63;6242563;23;20004;-60
2022/08/23 13:15:54;;;;;;;5.25;1.60;;;;;;;27.03;41.56;101432.78;6244276;23;20009;-60
2022/08/23 13:18:30;;;;;;;3.53;1.65;;;;;;;26.97;41.13;101421.97;6244555;23;20010;-59
2022/08/23 13:21:17;;;;;;;3.00;1.58;;;;;;;26.91;42.01;101427.88;6243554;23;20004;-60
2022/08/23 13:23:46;;;;;;;2.58;1.48;;;;;;;27.02;42.29;101433.16;6243670;23;20018;-59
2022/08/23 13:26:45;;;;;;;2.50;1.30;;;;;;;27.21;41.57;101418.41;6241604;23;20006;-59
2022/08/23 13:29:21;;;;;;;2.95;1.20;;;;;;;27.32;39.90;101422.47;6243062;23;20004;-59
2022/08/23 13:31:47;;;;;;;3.28;1.10;;;;;;;27.40;39.50;101412.97;6243367;23;20000;-59
2022/08/23 13:34:33;;;;;;;3.25;1.10;;;;;;;27.39;40.44;101429.25;6242021;23;20015;-59
2022/08/23 13:37:00;;;;;;;3.80;1.20;;;;;;;27.45;39.46;101415.56;6242573;23;20309;-59
2022/08/23 13:39:26;;;;;;;3.85;1.27;;;;;;;27.43;39.96;101417.94;6243322;23;20008;-58
2022/08/23 13:41:54;;;;;;;4.10;1.55;;;;;;;27.43;39.71;101415.09;6242530;23;20070;-75
2022/08/23 13:44:20;;;;;;;3.15;1.40;;;;;;;27.37;40.45;101417.34;6242901;23;20011;-59
2022/08/23 13:46:46;;;;;;;5.25;1.65;;;;;;;27.25;40.47;101416.50;6241441;23;20075;-60
2022/08/23 13:49:21;;;;;;;3.22;1.60;;;;;;;27.19;41.29;101415.03;6242346;23;20335;-59
2022/08/23 13:51:58;;;;;;;5.05;1.60;;;;;;;27.15;41.68;101424.28;6244398;23;20014;-61
2022/08/23 13:54:24;;;;;;;5.13;1.52;;;;;;;27.26;41.70;101424.69;6243058;23;20004;-60
2022/08/23 13:56:53;;;;;;;3.85;1.20;;;;;;;27.34;40.48;101417.22;6240361;23;20065;-59
2022/08/23 13:59:29;;;;;;;3.15;1.30;;;;;;;27.39;40.91;101412.13;6239194;23;20098;-60
2022/08/23 14:02:00;;;;;;;4.82;1.33;;;;;;;27.53;40.79;101414.63;6239133;23;20023;-59
2022/08/23 14:04:25;;;;;;;2.40;1.27;;;;;;;27.58;40.09;101414.38;6240047;23;20036;-59
2022/08/23 14:06:51;;;;;;;2.47;1.40;;;;;;;27.52;40.04;101406.44;6240149;23;20004;-59
2022/08/23 14:09:22;;;;;;;4.85;1.20;;;;;;;27.53;41.00;101410.94;6238469;23;20016;-60
2022/08/23 14:11:52;;;;;;;6.25;1.30;;;;;;;27.46;40.84;101413.56;6240518;23;20428;-59
2022/08/23 14:14:18;;;;;;;3.10;1.30;;;;;;;27.37;41.08;101408.78;6240288;23;20011;-60
2022/08/23 14:16:43;;;;;;;3.45;1.30;;;;;;;27.43;41.35;101415.09;6240008;23;20008;-60
2022/08/23 14:19:10;;;;;;;3.40;1.50;;;;;;;27.42;41.65;101419.13;6237597;23;20605;-60
2022/08/23 14:21:35;;;;;;;2.05;1.50;;;;;;;27.48;41.24;101419.75;6236467;23;20008;-59
2022/08/23 14:24:01;;;;;;;2.85;1.20;;;;;;;27.57;41.70;101414.75;6239149;23;20081;-60
2022/08/23 14:26:27;;;;;;;2.90;1.33;;;;;;;27.62;41.26;101412.50;6238268;23;20008;-60
2022/08/23 14:28:52;;;;;;;3.65;1.50;;;;;;;27.61;41.20;101407.97;6239184;23;20004;-59
2022/08/23 14:31:19;;;;;;;3.25;1.38;;;;;;;27.70;41.46;101410.72;6239621;23;20019;-59
2022/08/23 14:33:45;;;;;;;3.03;1.38;;;;;;;27.75;41.14;101415.41;6239435;23;20014;-59
2022/08/23 14:36:11;;;;;;;4.07;1.40;;;;;;;27.77;41.41;101421.56;6236832;23;20438;-60
2022/08/23 14:38:36;;;;;;;3.50;1.60;;;;;;;27.69;40.87;101416.78;6240258;23;20031;-60
2022/08/23 14:41:15;;;;;;;3.33;1.40;;;;;;;27.64;40.84;101412.97;6240503;23;20016;-59
2022/08/23 14:43:41;;;;;;;4.38;1.45;;;;;;;27.58;41.17;101413.56;6238776;23;20099;-59
2022/08/23 14:46:06;;;;;;;3.53;1.23;;;;;;;27.56;41.12;101415.94;6239927;23;20385;-60
2022/08/23 14:48:32;;;;;;;3.67;1.25;;;;;;;27.51;41.20;101405.63;6239031;23;20376;-60
2022/08/23 14:50:57;;;;;;;4.45;1.35;;;;;;;27.47;41.46;101404.66;6236140;23;20042;-60
2022/08/23 14:53:28;;;;;;;4.10;1.00;;;;;;;27.50;41.67;101406.78;6238120;23;20026;-60
2022/08/23 14:55:53;;;;;;;3.70;1.50;;;;;;;27.50;41.80;101401.06;6238051;23;20031;-59
2022/08/23 14:58:19;;;;;;;3.90;1.30;;;;;;;27.49;41.96;101393.72;6237610;23;20008;-60
2022/08/23 15:00:45;;;;;;;4.05;1.38;;;;;;;27.45;42.90;101398.47;6238477;23;20012;-59
2022/08/23 15:03:16;;;;;;;3.92;1.30;;;;;;;27.42;42.46;101402.03;6238058;23;20089;-58
2022/08/23 15:05:42;;;;;;;3.25;1.40;;;;;;;27.33;42.34;101399.28;6238733;23;20019;-59
2022/08/23 15:08:07;;;;;;;4.72;1.58;;;;;;;27.34;42.57;101397.25;6237848;23;20008;-59
2022/08/23 15:10:33;;;;;;;4.18;1.60;;;;;;;27.39;43.15;101405.56;6237879;23;20082;-59
2022/08/23 15:12:58;;;;;;;6.45;1.58;;;;;;;27.38;43.06;101401.91;6237474;23;20054;-60
2022/08/23 15:15:24;;;;;;;3.88;1.30;;;;;;;27.36;42.91;101404.28;6238441;23;20055;-60
2022/08/23 15:17:57;;;;;;;2.97;1.10;;;;;;;27.48;42.82;101397.75;6238577;23;20043;-58
2022/08/23 15:20:26;;;;;;;2.47;0.95;;;;;;;27.46;43.28;101411.53;6237530;23;20000;-59
2022/08/23 15:22:52;;;;;;;4.38;1.30;;;;;;;27.52;42.87;101404.41;6236991;23;20042;-59
2022/08/23 15:25:18;;;;;;;5.88;1.50;;;;;;;27.53;42.80;101400.38;6237657;23;20008;-58
2022/08/23 15:27:45;;;;;;;3.20;1.30;;;;;;;27.54;42.74;101398.34;6238785;23;20090;-60
2022/08/23 15:30:12;;;;;;;2.10;1.20;;;;;;;27.55;43.20;101400.88;6237298;23;20008;-59
2022/08/23 15:32:38;;;;;;;2.35;1.10;;;;;;;27.54;43.82;101404.88;6238559;23;20012;-60
2022/08/23 15:35:04;;;;;;;2.40;1.00;;;;;;;27.56;43.20;101399.66;6236124;23;20077;-60
2022/08/23 15:37:30;;;;;;;2.92;1.27;;;;;;;27.56;43.42;101399.66;6234884;23;20004;-59
2022/08/23 15:39:56;;;;;;;2.05;1.23;;;;;;;27.58;43.58;101400.13;6235932;23;20012;-60
2022/08/23 15:42:21;;;;;;;2.17;1.20;;;;;;;27.56;43.37;101401.69;6236580;23;20023;-59
2022/08/23 15:44:48;;;;;;;3.10;1.30;;;;;;;27.53;42.97;101399.56;6237136;23;20008;-59
2022/08/23 15:47:20;;;;;;;1.08;0.80;;;;;;;27.52;43.39;101397.88;6237295;23;20015;-60
2022/08/23 15:49:46;;;;;;;2.33;1.02;;;;;;;27.50;42.76;101398.22;6236785;23;20012;-59
2022/08/23 15:52:11;;;;;;;1.15;0.90;;;;;;;27.52;42.99;101397.88;6238571;23;20008;-60
2022/08/23 15:54:42;;;;;;;1.33;0.80;;;;;;;27.53;43.21;101400.38;6237703;23;20293;-59
2022/08/23 15:57:13;;;;;;;1.90;1.00;;;;;;;27.54;43.46;101395.50;6238442;23;20054;-59
2022/08/23 15:59:39;;;;;;;4.50;0.90;;;;;;;27.56;43.77;101402.53;6238893;23;20790;-59
2022/08/23 16:02:05;;;;;;;1.77;1.10;;;;;;;27.54;43.46;101407.72;6237017;23;20091;-59
2022/08/23 16:04:30;;;;;;;1.92;1.08;;;;;;;27.50;43.42;101395.38;6238267;23;20514;-58
2022/08/23 16:06:56;;;;;;;3.30;1.02;;;;;;;27.48;43.40;101399.78;6238568;23;20075;-59
2022/08/23 16:09:23;;;;;;;2.13;0.90;;;;;;;27.48;43.66;101403.47;6240321;23;20008;-59
2022/08/23 16:11:49;;;;;;;2.95;1.17;;;;;;;27.47;43.52;101404.66;6242753;23;20015;-59
2022/08/23 16:14:15;;;;;;;3.80;0.90;;;;;;;27.49;43.88;101401.44;6241766;23;20010;-59
2022/08/23 16:16:41;;;;;;;2.33;1.00;;;;;;;27.45;43.79;101401.31;6238823;23;20095;-59
2022/08/23 16:19:07;;;;;;;3.55;1.00;;;;;;;27.48;43.59;101397.75;6238104;23;20011;-60
2022/08/23 16:21:33;;;;;;;1.48;0.90;;;;;;;27.45;43.87;101404.16;6238284;23;20007;-60
2022/08/23 16:23:59;;;;;;;1.90;1.15;;;;;;;27.44;43.78;101404.53;6239285;23;20012;-59
2022/08/23 16:26:31;;;;;;;3.38;0.70;;;;;;;27.46;43.31;101396.44;6240991;23;20008;-58
2022/08/23 16:28:58;;;;;;;2.63;0.70;;;;;;;27.38;43.30;101393.34;6238863;23;20000;-57
2022/08/23 16:31:28;;;;;;;2.50;1.23;;;;;;;27.39;42.32;101402.72;6241364;23;20420;-58
2022/08/23 16:33:58;;;;;;;2.92;0.82;;;;;;;27.36;42.83;101397.75;6241598;23;20004;-58
2022/08/23 16:36:24;;;;;;;1.33;0.85;;;;;;;27.33;43.35;101395.59;6240883;23;20008;-58
2022/08/23 16:38:50;;;;;;;1.45;0.80;;;;;;;27.32;43.37;101396.81;6241151;23;20064;-58
2022/08/23 16:41:15;;;;;;;1.40;0.70;;;;;;;27.28;42.80;101398.69;6239788;23;20119;-58
2022/08/23 16:43:40;;;;;;;4.57;0.80;;;;;;;27.27;43.45;101397.00;6241554;23;20039;-58
2022/08/23 16:46:07;;;;;;;6.00;0.90;;;;;;;27.28;43.59;101401.56;6238909;23;20008;-58
2022/08/23 16:48:33;;;;;;;1.67;0.80;;;;;;;27.23;43.41;101399.72;6239083;23;20121;-63
2022/08/23 16:50:59;;;;;;;1.50;0.90;;;;;;;27.20;43.11;101397.63;6236219;23;20393;-60
2022/08/23 16:53:36;;;;;;;1.17;0.80;;;;;;;27.19;43.26;101400.81;6236340;23;20012;-59
2022/08/23 16:56:03;;;;;;;3.85;0.93;;;;;;;27.14;43.63;101399.00;6235393;23;20015;-59
2022/08/23 16:58:28;;;;;;;3.78;1.00;;;;;;;27.13;43.63;101403.88;6236894;23;20031;-59
2022/08/23 17:00:53;;;;;;;3.45;1.00;;;;;;;27.11;43.97;101408.25;6237340;23;20078;-59